Terminal Aerodrome Forecast
Issued by NWS

Home | Current Version | Previous Version | Graphics & Text | Print | Product List | Glossary On
Versions: 1 2 3 4 5 6 7 8 9 10 11 12 13 14 15 16 17 18 19 20 21 22 23 24
806
FTUS43 KLOT 300530
TAFMDW
TAF
KMDW 300530Z 3006/0106 22006KT P6SM FEW030 FEW250
     FM301600 24010G16KT P6SM SCT200
     FM301800 24013G21KT P6SM SCT025 BKN035
     FM302100 24014G23KT P6SM VCSH BKN025
     FM010200 24013G22KT P6SM -SHSN OVC020=

USA.gov is the U.S. government's official web portal to all federal, state and local government web resources and services.